aviador You're here:

KFCS Decoded Metar

FORT CARSON in CO, USA
Report Time2018-02-22 14:50:00
UTC Time2018-02-22 15:01:48
Flight Rules lifr LIFR
Wind150° at 07 kt
W.Decomp.*RWY 13: 6.9 kt HW 1.0 kt RCW
RWY 22: 1.0 kt HW 6.9 kt LCW
W.Rank150° ranks 6
Current wind is below 150° avg. (8.4)
Visibility9999 m
Phenomena:Light Snow
Clouds:Overcast 002 Hf
Expected CloudBase > 800 ft AGL from Temp-Dew spread
Ceiling200 ft
Temp-9°C (ISA -12)
Dew Point-11°C (86% RH)
AAT-14.6°C
QNH1015 hPa
Density Alt4,341 ft
Elevation5,869 ft
Report Wrong Elevation
Raw Report
KFCS 221450Z AUTO 15007KT 7SM -SN OVC002 M09/M11 A2998 RMK AO2
SNB16E43SNB50 CIG 002V004 SLP246 $=

Extra information for KFCS:More info

Metar Taf Metar & Taf Last 4 Metars F.Rules Stats Wind Profile Meteogram Temp Stats Airport Information Weather charts Add Link Nearby VenuesMetar ALERT Operation Metar Decoded Social comments

AIRNAV info for KFCS